sensor_id;sensor_type;location;lat;lon;timestamp;pressure;altitude;pressure_sealevel;temperature;humidity
78206;BME280;67480;48.920;12.880;2023-07-22T00:02:03;96985.63;;;17.46;48.71
78206;BME280;67480;48.920;12.880;2023-07-22T00:04:28;96992.19;;;17.45;48.66
78206;BME280;67480;48.920;12.880;2023-07-22T00:06:54;96988.78;;;17.49;48.57
78206;BME280;67480;48.920;12.880;2023-07-22T00:09:19;96990.63;;;17.44;48.65
78206;BME280;67480;48.920;12.880;2023-07-22T00:11:45;96993.22;;;17.21;49.16
78206;BME280;67480;48.920;12.880;2023-07-22T00:14:10;96996.28;;;17.36;49.07
78206;BME280;67480;48.920;12.880;2023-07-22T00:16:36;96990.56;;;17.25;49.18
78206;BME280;67480;48.920;12.880;2023-07-22T00:19:04;96997.38;;;17.15;49.40
78206;BME280;67480;48.920;12.880;2023-07-22T00:21:29;97000.72;;;17.08;49.49
78206;BME280;67480;48.920;12.880;2023-07-22T00:23:55;96988.31;;;16.91;50.05
78206;BME280;67480;48.920;12.880;2023-07-22T00:26:20;96996.16;;;16.77;50.73
78206;BME280;67480;48.920;12.880;2023-07-22T00:28:46;96995.88;;;16.82;50.60
78206;BME280;67480;48.920;12.880;2023-07-22T00:31:11;96992.72;;;16.80;51.07
78206;BME280;67480;48.920;12.880;2023-07-22T00:33:36;96994.31;;;16.81;50.90
78206;BME280;67480;48.920;12.880;2023-07-22T00:36:02;96993.91;;;16.63;51.14
78206;BME280;67480;48.920;12.880;2023-07-22T00:38:28;96999.94;;;16.57;51.17
78206;BME280;67480;48.920;12.880;2023-07-22T00:40:53;97001.09;;;16.40;51.69
78206;BME280;67480;48.920;12.880;2023-07-22T00:43:19;97003.91;;;16.43;51.27
78206;BME280;67480;48.920;12.880;2023-07-22T00:45:44;97000.91;;;16.32;51.40
78206;BME280;67480;48.920;12.880;2023-07-22T00:48:10;97004.47;;;16.21;51.82
78206;BME280;67480;48.920;12.880;2023-07-22T00:50:36;97000.69;;;16.09;52.19
78206;BME280;67480;48.920;12.880;2023-07-22T00:53:04;96998.75;;;15.94;52.68
78206;BME280;67480;48.920;12.880;2023-07-22T00:55:29;97000.19;;;16.04;52.42
78206;BME280;67480;48.920;12.880;2023-07-22T00:57:57;97003.16;;;15.98;52.47
78206;BME280;67480;48.920;12.880;2023-07-22T01:00:23;96999.72;;;15.86;52.72
78206;BME280;67480;48.920;12.880;2023-07-22T01:02:48;96999.88;;;15.93;52.35
78206;BME280;67480;48.920;12.880;2023-07-22T01:05:14;96994.63;;;15.84;53.37
78206;BME280;67480;48.920;12.880;2023-07-22T01:07:39;96990.31;;;15.67;53.67
78206;BME280;67480;48.920;12.880;2023-07-22T01:10:05;96987.94;;;15.66;53.65
78206;BME280;67480;48.920;12.880;2023-07-22T01:12:31;96985.56;;;15.64;54.17
78206;BME280;67480;48.920;12.880;2023-07-22T01:14:57;96982.78;;;15.76;54.26
78206;BME280;67480;48.920;12.880;2023-07-22T01:17:23;96986.88;;;15.70;54.30
78206;BME280;67480;48.920;12.880;2023-07-22T01:19:49;96983.00;;;15.84;53.99
78206;BME280;67480;48.920;12.880;2023-07-22T01:22:16;96976.91;;;15.74;54.11
78206;BME280;67480;48.920;12.880;2023-07-22T01:24:42;96987.22;;;15.69;54.18
78206;BME280;67480;48.920;12.880;2023-07-22T01:27:08;96980.53;;;15.50;54.46
78206;BME280;67480;48.920;12.880;2023-07-22T01:29:35;96987.72;;;15.58;54.54
78206;BME280;67480;48.920;12.880;2023-07-22T01:32:01;96993.81;;;15.68;54.21
78206;BME280;67480;48.920;12.880;2023-07-22T01:34:27;97000.69;;;15.65;54.10
78206;BME280;67480;48.920;12.880;2023-07-22T01:36:52;96995.84;;;15.30;55.19
78206;BME280;67480;48.920;12.880;2023-07-22T01:39:19;96997.75;;;15.42;55.02
78206;BME280;67480;48.920;12.880;2023-07-22T01:41:44;97000.59;;;15.21;56.06
78206;BME280;67480;48.920;12.880;2023-07-22T01:44:10;96994.34;;;15.33;55.31
78206;BME280;67480;48.920;12.880;2023-07-22T01:46:38;96999.31;;;15.31;55.26
78206;BME280;67480;48.920;12.880;2023-07-22T01:49:06;96987.59;;;15.26;55.35
78206;BME280;67480;48.920;12.880;2023-07-22T01:51:33;96991.78;;;15.24;55.79
78206;BME280;67480;48.920;12.880;2023-07-22T01:53:59;96984.66;;;15.19;55.97
78206;BME280;67480;48.920;12.880;2023-07-22T01:56:25;96992.72;;;15.16;55.67
78206;BME280;67480;48.920;12.880;2023-07-22T01:58:50;96991.94;;;15.15;55.76
78206;BME280;67480;48.920;12.880;2023-07-22T02:01:15;96995.22;;;14.96;56.07
78206;BME280;67480;48.920;12.880;2023-07-22T02:03:42;96995.56;;;14.95;56.41
78206;BME280;67480;48.920;12.880;2023-07-22T02:06:07;96997.03;;;15.04;56.00
78206;BME280;67480;48.920;12.880;2023-07-22T02:08:33;97002.00;;;14.90;56.58
78206;BME280;67480;48.920;12.880;2023-07-22T02:11:08;97003.22;;;15.05;56.15
78206;BME280;67480;48.920;12.880;2023-07-22T02:13:36;96997.69;;;15.01;56.35
78206;BME280;67480;48.920;12.880;2023-07-22T02:19:20;97004.47;;;14.95;56.21
78206;BME280;67480;48.920;12.880;2023-07-22T02:21:45;97001.00;;;14.82;56.72
78206;BME280;67480;48.920;12.880;2023-07-22T02:24:11;96998.41;;;14.86;56.84
78206;BME280;67480;48.920;12.880;2023-07-22T02:26:36;96999.09;;;14.83;56.66
78206;BME280;67480;48.920;12.880;2023-07-22T02:29:02;97001.13;;;14.86;56.48
78206;BME280;67480;48.920;12.880;2023-07-22T02:31:27;97008.44;;;14.85;56.68
78206;BME280;67480;48.920;12.880;2023-07-22T02:33:53;97017.59;;;14.93;56.59
78206;BME280;67480;48.920;12.880;2023-07-22T02:36:18;97012.31;;;14.84;56.59
78206;BME280;67480;48.920;12.880;2023-07-22T02:38:44;97020.41;;;14.72;56.93
78206;BME280;67480;48.920;12.880;2023-07-22T02:41:09;97013.19;;;14.64;57.12
78206;BME280;67480;48.920;12.880;2023-07-22T02:43:35;97012.66;;;14.58;57.52
78206;BME280;67480;48.920;12.880;2023-07-22T02:46:01;97015.22;;;14.54;57.66
78206;BME280;67480;48.920;12.880;2023-07-22T02:48:28;97021.09;;;14.44;57.75
78206;BME280;67480;48.920;12.880;2023-07-22T02:50:53;97027.25;;;14.32;58.38
78206;BME280;67480;48.920;12.880;2023-07-22T02:53:19;97026.00;;;14.30;58.21
78206;BME280;67480;48.920;12.880;2023-07-22T02:55:44;97028.81;;;14.21;58.82
78206;BME280;67480;48.920;12.880;2023-07-22T02:58:11;97024.97;;;14.10;58.92
78206;BME280;67480;48.920;12.880;2023-07-22T03:00:37;97024.88;;;14.31;58.57
78206;BME280;67480;48.920;12.880;2023-07-22T03:03:02;97017.03;;;14.38;58.14
78206;BME280;67480;48.920;12.880;2023-07-22T03:05:31;97028.66;;;14.39;57.86
78206;BME280;67480;48.920;12.880;2023-07-22T03:07:57;97027.88;;;14.50;57.70
78206;BME280;67480;48.920;12.880;2023-07-22T03:10:23;97033.97;;;14.47;57.75
78206;BME280;67480;48.920;12.880;2023-07-22T03:12:51;97034.84;;;14.39;58.25
78206;BME280;67480;48.920;12.880;2023-07-22T03:15:21;97031.81;;;14.41;58.10
78206;BME280;67480;48.920;12.880;2023-07-22T03:17:47;97036.34;;;14.49;57.78
78206;BME280;67480;48.920;12.880;2023-07-22T03:20:13;97029.63;;;14.34;58.03
78206;BME280;67480;48.920;12.880;2023-07-22T03:22:40;97038.88;;;14.33;58.17
78206;BME280;67480;48.920;12.880;2023-07-22T03:25:06;97038.31;;;14.27;58.42
78206;BME280;67480;48.920;12.880;2023-07-22T03:27:34;97038.16;;;14.11;58.87
78206;BME280;67480;48.920;12.880;2023-07-22T03:30:00;97046.16;;;14.08;58.70
78206;BME280;67480;48.920;12.880;2023-07-22T03:32:25;97052.34;;;14.08;58.94
78206;BME280;67480;48.920;12.880;2023-07-22T03:34:50;97059.38;;;14.22;58.49
78206;BME280;67480;48.920;12.880;2023-07-22T03:37:16;97058.28;;;14.35;57.98
78206;BME280;67480;48.920;12.880;2023-07-22T03:39:41;97063.56;;;14.31;57.75
78206;BME280;67480;48.920;12.880;2023-07-22T03:42:07;97061.88;;;14.27;57.88
78206;BME280;67480;48.920;12.880;2023-07-22T03:44:32;97068.59;;;14.08;58.20
78206;BME280;67480;48.920;12.880;2023-07-22T03:46:59;97070.50;;;14.08;58.42
78206;BME280;67480;48.920;12.880;2023-07-22T03:49:24;97067.19;;;13.90;59.17
78206;BME280;67480;48.920;12.880;2023-07-22T03:51:50;97072.06;;;13.96;59.14
78206;BME280;67480;48.920;12.880;2023-07-22T03:54:15;97077.38;;;14.05;58.98
78206;BME280;67480;48.920;12.880;2023-07-22T03:56:41;97085.31;;;13.89;59.10
78206;BME280;67480;48.920;12.880;2023-07-22T03:59:06;97087.66;;;14.12;58.71
78206;BME280;67480;48.920;12.880;2023-07-22T04:01:32;97093.00;;;14.21;58.44
78206;BME280;67480;48.920;12.880;2023-07-22T04:03:57;97090.31;;;14.33;57.76
78206;BME280;67480;48.920;12.880;2023-07-22T04:06:23;97094.22;;;14.23;58.12
78206;BME280;67480;48.920;12.880;2023-07-22T04:08:48;97089.25;;;14.25;58.17
78206;BME280;67480;48.920;12.880;2023-07-22T04:11:14;97087.78;;;14.15;58.68
78206;BME280;67480;48.920;12.880;2023-07-22T04:13:40;97089.41;;;14.29;58.72
78206;BME280;67480;48.920;12.880;2023-07-22T04:16:05;97087.59;;;14.33;58.46
78206;BME280;67480;48.920;12.880;2023-07-22T04:18:30;97083.63;;;14.18;59.02
78206;BME280;67480;48.920;12.880;2023-07-22T04:21:00;97090.53;;;14.28;58.61
78206;BME280;67480;48.920;12.880;2023-07-22T04:23:26;97085.00;;;14.24;58.96
78206;BME280;67480;48.920;12.880;2023-07-22T04:25:51;97083.06;;;14.25;59.00
78206;BME280;67480;48.920;12.880;2023-07-22T04:28:17;97082.72;;;14.26;59.11
78206;BME280;67480;48.920;12.880;2023-07-22T04:30:43;97084.06;;;14.20;59.40
78206;BME280;67480;48.920;12.880;2023-07-22T04:33:08;97085.22;;;14.31;59.05
78206;BME280;67480;48.920;12.880;2023-07-22T04:35:40;97088.41;;;14.33;58.70
78206;BME280;67480;48.920;12.880;2023-07-22T04:38:06;97083.47;;;14.35;59.05
78206;BME280;67480;48.920;12.880;2023-07-22T04:40:32;97080.47;;;14.28;59.44
78206;BME280;67480;48.920;12.880;2023-07-22T04:42:57;97084.56;;;14.34;59.91
78206;BME280;67480;48.920;12.880;2023-07-22T04:45:25;97085.41;;;14.47;59.35
78206;BME280;67480;48.920;12.880;2023-07-22T04:47:51;97095.34;;;14.56;59.24
78206;BME280;67480;48.920;12.880;2023-07-22T04:50:16;97091.41;;;14.53;59.57
78206;BME280;67480;48.920;12.880;2023-07-22T04:52:44;97095.69;;;14.54;59.40
78206;BME280;67480;48.920;12.880;2023-07-22T04:55:10;97090.75;;;14.68;59.09
78206;BME280;67480;48.920;12.880;2023-07-22T04:57:36;97104.53;;;14.88;58.50
78206;BME280;67480;48.920;12.880;2023-07-22T05:00:02;97102.72;;;14.92;58.39
78206;BME280;67480;48.920;12.880;2023-07-22T05:02:30;97105.78;;;15.15;58.09
78206;BME280;67480;48.920;12.880;2023-07-22T05:04:58;97109.25;;;15.16;58.53
78206;BME280;67480;48.920;12.880;2023-07-22T05:07:23;97105.09;;;15.18;58.45
78206;BME280;67480;48.920;12.880;2023-07-22T05:09:53;97112.53;;;15.34;58.00
78206;BME280;67480;48.920;12.880;2023-07-22T05:12:19;97111.53;;;15.38;57.77
78206;BME280;67480;48.920;12.880;2023-07-22T05:14:48;97112.88;;;15.44;57.56
78206;BME280;67480;48.920;12.880;2023-07-22T05:17:14;97107.88;;;15.59;57.89
78206;BME280;67480;48.920;12.880;2023-07-22T05:19:39;97111.81;;;15.61;58.19
78206;BME280;67480;48.920;12.880;2023-07-22T05:22:05;97107.19;;;15.62;58.18
78206;BME280;67480;48.920;12.880;2023-07-22T05:24:31;97118.34;;;15.73;57.90
78206;BME280;67480;48.920;12.880;2023-07-22T05:26:56;97117.28;;;15.90;57.52
78206;BME280;67480;48.920;12.880;2023-07-22T05:29:21;97119.53;;;16.00;57.72
78206;BME280;67480;48.920;12.880;2023-07-22T05:31:47;97121.56;;;16.19;56.69
78206;BME280;67480;48.920;12.880;2023-07-22T05:34:13;97124.44;;;16.10;56.75
78206;BME280;67480;48.920;12.880;2023-07-22T05:36:39;97127.06;;;16.07;56.74
78206;BME280;67480;48.920;12.880;2023-07-22T05:39:05;97130.53;;;16.19;56.32
78206;BME280;67480;48.920;12.880;2023-07-22T05:41:33;97124.59;;;16.30;56.17
78206;BME280;67480;48.920;12.880;2023-07-22T05:43:58;97121.13;;;16.17;56.66
78206;BME280;67480;48.920;12.880;2023-07-22T05:46:23;97125.53;;;16.22;56.16
78206;BME280;67480;48.920;12.880;2023-07-22T05:48:49;97119.81;;;16.39;56.30
78206;BME280;67480;48.920;12.880;2023-07-22T05:51:14;97129.47;;;16.52;56.00
78206;BME280;67480;48.920;12.880;2023-07-22T05:53:40;97125.13;;;16.35;55.77
78206;BME280;67480;48.920;12.880;2023-07-22T05:56:06;97118.81;;;16.31;55.93
78206;BME280;67480;48.920;12.880;2023-07-22T05:58:31;97123.31;;;16.40;56.31
78206;BME280;67480;48.920;12.880;2023-07-22T06:00:56;97121.44;;;16.28;56.21
78206;BME280;67480;48.920;12.880;2023-07-22T06:03:22;97123.09;;;16.32;56.52
78206;BME280;67480;48.920;12.880;2023-07-22T06:05:47;97126.56;;;16.45;56.15
78206;BME280;67480;48.920;12.880;2023-07-22T06:08:13;97131.47;;;16.40;56.38
78206;BME280;67480;48.920;12.880;2023-07-22T06:10:40;97134.47;;;16.50;56.34
78206;BME280;67480;48.920;12.880;2023-07-22T06:13:06;97137.59;;;16.36;56.37
78206;BME280;67480;48.920;12.880;2023-07-22T06:15:32;97141.13;;;16.53;56.06
78206;BME280;67480;48.920;12.880;2023-07-22T06:17:58;97142.22;;;16.80;55.10
78206;BME280;67480;48.920;12.880;2023-07-22T06:20:24;97141.59;;;16.87;54.76
78206;BME280;67480;48.920;12.880;2023-07-22T06:22:49;97143.06;;;16.84;55.85
78206;BME280;67480;48.920;12.880;2023-07-22T06:25:14;97140.97;;;17.09;54.30
78206;BME280;67480;48.920;12.880;2023-07-22T06:27:40;97148.31;;;17.25;53.94
78206;BME280;67480;48.920;12.880;2023-07-22T06:30:06;97148.09;;;17.14;53.74
78206;BME280;67480;48.920;12.880;2023-07-22T06:32:34;97142.56;;;17.26;53.87
78206;BME280;67480;48.920;12.880;2023-07-22T06:34:59;97146.25;;;17.34;52.74
78206;BME280;67480;48.920;12.880;2023-07-22T06:37:25;97141.97;;;17.53;52.56
78206;BME280;67480;48.920;12.880;2023-07-22T06:39:51;97150.53;;;17.71;52.00
78206;BME280;67480;48.920;12.880;2023-07-22T06:42:16;97152.28;;;17.79;51.69
78206;BME280;67480;48.920;12.880;2023-07-22T06:44:43;97149.13;;;17.96;51.40
78206;BME280;67480;48.920;12.880;2023-07-22T06:47:08;97149.66;;;17.82;50.69
78206;BME280;67480;48.920;12.880;2023-07-22T06:49:34;97162.19;;;17.52;51.46
78206;BME280;67480;48.920;12.880;2023-07-22T06:51:59;97153.69;;;17.37;51.78
78206;BME280;67480;48.920;12.880;2023-07-22T06:54:26;97144.53;;;17.61;51.32
78206;BME280;67480;48.920;12.880;2023-07-22T06:56:51;97156.84;;;17.75;50.99
78206;BME280;67480;48.920;12.880;2023-07-22T06:59:17;97154.81;;;17.88;50.39
78206;BME280;67480;48.920;12.880;2023-07-22T07:01:42;97159.47;;;18.07;50.29
78206;BME280;67480;48.920;12.880;2023-07-22T07:04:08;97149.31;;;18.23;50.15
78206;BME280;67480;48.920;12.880;2023-07-22T07:06:33;97146.69;;;17.91;50.47
78206;BME280;67480;48.920;12.880;2023-07-22T07:08:59;97148.28;;;18.12;50.10
78206;BME280;67480;48.920;12.880;2023-07-22T07:11:26;97139.44;;;18.34;49.98
78206;BME280;67480;48.920;12.880;2023-07-22T07:13:51;97148.47;;;18.85;48.92
78206;BME280;67480;48.920;12.880;2023-07-22T07:16:29;97157.44;;;19.05;48.03
78206;BME280;67480;48.920;12.880;2023-07-22T07:18:56;97154.69;;;18.82;47.99
78206;BME280;67480;48.920;12.880;2023-07-22T07:21:22;97143.94;;;19.16;47.59
78206;BME280;67480;48.920;12.880;2023-07-22T07:23:48;97155.72;;;19.20;47.67
78206;BME280;67480;48.920;12.880;2023-07-22T07:26:14;97144.97;;;19.07;47.51
78206;BME280;67480;48.920;12.880;2023-07-22T07:28:40;97146.75;;;19.46;47.00
78206;BME280;67480;48.920;12.880;2023-07-22T07:31:05;97154.97;;;19.50;46.92
78206;BME280;67480;48.920;12.880;2023-07-22T07:33:31;97154.31;;;19.29;46.51
78206;BME280;67480;48.920;12.880;2023-07-22T07:35:56;97163.31;;;19.34;46.75
78206;BME280;67480;48.920;12.880;2023-07-22T07:38:22;97164.81;;;19.54;46.92
78206;BME280;67480;48.920;12.880;2023-07-22T07:40:52;97170.09;;;19.43;46.69
78206;BME280;67480;48.920;12.880;2023-07-22T07:43:18;97170.75;;;19.60;46.91
78206;BME280;67480;48.920;12.880;2023-07-22T07:45:43;97167.06;;;19.49;46.49
78206;BME280;67480;48.920;12.880;2023-07-22T07:48:08;97171.13;;;19.85;45.66
78206;BME280;67480;48.920;12.880;2023-07-22T07:50:34;97166.03;;;20.14;45.55
78206;BME280;67480;48.920;12.880;2023-07-22T07:52:59;97170.56;;;20.02;44.57
78206;BME280;67480;48.920;12.880;2023-07-22T07:55:25;97176.44;;;20.05;45.65
78206;BME280;67480;48.920;12.880;2023-07-22T07:57:51;97170.34;;;20.18;44.75
78206;BME280;67480;48.920;12.880;2023-07-22T08:00:16;97168.69;;;20.10;44.87
78206;BME280;67480;48.920;12.880;2023-07-22T08:02:42;97169.34;;;20.30;45.16
78206;BME280;67480;48.920;12.880;2023-07-22T08:05:07;97171.72;;;20.01;44.96
78206;BME280;67480;48.920;12.880;2023-07-22T08:07:33;97161.16;;;20.00;44.96
78206;BME280;67480;48.920;12.880;2023-07-22T08:09:59;97162.06;;;20.45;44.12
78206;BME280;67480;48.920;12.880;2023-07-22T08:12:24;97157.34;;;20.76;43.48
78206;BME280;67480;48.920;12.880;2023-07-22T08:14:49;97173.84;;;20.87;42.69
78206;BME280;67480;48.920;12.880;2023-07-22T08:17:17;97173.97;;;20.60;43.75
78206;BME280;67480;48.920;12.880;2023-07-22T08:19:42;97161.38;;;20.89;43.04
78206;BME280;67480;48.920;12.880;2023-07-22T08:22:07;97166.84;;;21.34;42.05
78206;BME280;67480;48.920;12.880;2023-07-22T08:24:33;97164.03;;;21.86;41.46
78206;BME280;67480;48.920;12.880;2023-07-22T08:26:58;97171.06;;;21.83;41.43
78206;BME280;67480;48.920;12.880;2023-07-22T08:29:24;97169.56;;;21.97;40.70
78206;BME280;67480;48.920;12.880;2023-07-22T08:31:50;97177.22;;;21.66;41.46
78206;BME280;67480;48.920;12.880;2023-07-22T08:34:15;97173.22;;;21.53;40.84
78206;BME280;67480;48.920;12.880;2023-07-22T08:36:41;97179.63;;;21.75;40.34
78206;BME280;67480;48.920;12.880;2023-07-22T08:39:07;97178.34;;;21.54;41.12
78206;BME280;67480;48.920;12.880;2023-07-22T08:41:33;97187.03;;;21.71;40.29
78206;BME280;67480;48.920;12.880;2023-07-22T08:44:00;97183.78;;;21.51;40.13
78206;BME280;67480;48.920;12.880;2023-07-22T08:46:28;97179.59;;;21.71;40.57
78206;BME280;67480;48.920;12.880;2023-07-22T08:48:59;97170.50;;;22.26;39.72
78206;BME280;67480;48.920;12.880;2023-07-22T08:51:25;97173.34;;;22.69;39.21
78206;BME280;67480;48.920;12.880;2023-07-22T08:53:53;97180.81;;;22.62;38.30
78206;BME280;67480;48.920;12.880;2023-07-22T08:56:24;97181.69;;;22.95;37.60
78206;BME280;67480;48.920;12.880;2023-07-22T08:58:51;97175.78;;;23.57;37.33
78206;BME280;67480;48.920;12.880;2023-07-22T09:01:17;97181.19;;;24.04;36.06
78206;BME280;67480;48.920;12.880;2023-07-22T09:03:43;97193.34;;;24.03;35.53
78206;BME280;67480;48.920;12.880;2023-07-22T09:06:09;97193.66;;;24.41;35.11
78206;BME280;67480;48.920;12.880;2023-07-22T09:08:35;97185.72;;;24.54;35.46
78206;BME280;67480;48.920;12.880;2023-07-22T09:11:01;97189.97;;;24.66;33.90
78206;BME280;67480;48.920;12.880;2023-07-22T09:13:27;97182.94;;;25.70;32.72
78206;BME280;67480;48.920;12.880;2023-07-22T09:15:53;97191.50;;;26.17;32.26
78206;BME280;67480;48.920;12.880;2023-07-22T09:18:19;97193.31;;;27.67;30.12
78206;BME280;67480;48.920;12.880;2023-07-22T09:20:45;97195.00;;;28.25;28.67
78206;BME280;67480;48.920;12.880;2023-07-22T09:23:11;97195.00;;;28.25;27.92
78206;BME280;67480;48.920;12.880;2023-07-22T09:25:36;97184.94;;;28.71;27.33
78206;BME280;67480;48.920;12.880;2023-07-22T09:28:02;97190.97;;;30.14;25.43
78206;BME280;67480;48.920;12.880;2023-07-22T09:30:30;97182.53;;;31.11;24.13
78206;BME280;67480;48.920;12.880;2023-07-22T09:32:59;97184.59;;;31.58;23.17
78206;BME280;67480;48.920;12.880;2023-07-22T09:35:48;97180.59;;;29.23;26.66
78206;BME280;67480;48.920;12.880;2023-07-22T09:38:14;97179.47;;;30.28;25.77
78206;BME280;67480;48.920;12.880;2023-07-22T09:40:47;97184.66;;;30.81;24.55
78206;BME280;67480;48.920;12.880;2023-07-22T09:43:12;97194.63;;;31.43;22.24
78206;BME280;67480;48.920;12.880;2023-07-22T09:45:38;97177.19;;;31.04;23.39
78206;BME280;67480;48.920;12.880;2023-07-22T09:48:04;97185.88;;;29.50;25.02
78206;BME280;67480;48.920;12.880;2023-07-22T09:50:31;97178.91;;;30.04;25.05
78206;BME280;67480;48.920;12.880;2023-07-22T09:52:57;97173.81;;;30.02;24.61
78206;BME280;67480;48.920;12.880;2023-07-22T09:55:25;97172.75;;;31.67;23.05
78206;BME280;67480;48.920;12.880;2023-07-22T09:57:55;97175.44;;;33.68;21.05
78206;BME280;67480;48.920;12.880;2023-07-22T10:00:21;97170.72;;;33.19;21.52
78206;BME280;67480;48.920;12.880;2023-07-22T10:02:48;97173.97;;;31.31;23.63
78206;BME280;67480;48.920;12.880;2023-07-22T10:05:18;97170.69;;;29.71;24.58
78206;BME280;67480;48.920;12.880;2023-07-22T10:07:49;97155.63;;;29.56;25.41
78206;BME280;67480;48.920;12.880;2023-07-22T10:10:17;97150.03;;;31.46;22.93
78206;BME280;67480;48.920;12.880;2023-07-22T10:12:43;97158.44;;;31.56;22.65
78206;BME280;67480;48.920;12.880;2023-07-22T10:15:11;97147.50;;;31.96;22.47
78206;BME280;67480;48.920;12.880;2023-07-22T10:17:38;97145.16;;;33.20;20.10
78206;BME280;67480;48.920;12.880;2023-07-22T10:20:04;97142.84;;;31.58;22.76
78206;BME280;67480;48.920;12.880;2023-07-22T10:22:37;97142.00;;;29.78;23.59
78206;BME280;67480;48.920;12.880;2023-07-22T10:25:06;97135.66;;;29.32;24.51
78206;BME280;67480;48.920;12.880;2023-07-22T10:27:34;97129.38;;;28.45;25.78
78206;BME280;67480;48.920;12.880;2023-07-22T10:29:59;97124.63;;;28.06;26.52
78206;BME280;67480;48.920;12.880;2023-07-22T10:32:34;97122.50;;;27.73;27.32
78206;BME280;67480;48.920;12.880;2023-07-22T10:35:00;97117.06;;;26.99;28.41
78206;BME280;67480;48.920;12.880;2023-07-22T10:37:32;97116.75;;;27.17;27.66
78206;BME280;67480;48.920;12.880;2023-07-22T10:40:17;97118.34;;;26.36;29.43
78206;BME280;67480;48.920;12.880;2023-07-22T10:42:58;97118.47;;;25.94;29.05
78206;BME280;67480;48.920;12.880;2023-07-22T10:48:06;97115.00;;;25.87;30.06
78206;BME280;67480;48.920;12.880;2023-07-22T10:50:46;97120.53;;;27.03;28.46
78206;BME280;67480;48.920;12.880;2023-07-22T10:56:07;97121.25;;;31.15;23.13
78206;BME280;67480;48.920;12.880;2023-07-22T11:11:54;97114.34;;;33.24;22.03
78206;BME280;67480;48.920;12.880;2023-07-22T11:14:23;97113.63;;;34.49;20.22
78206;BME280;67480;48.920;12.880;2023-07-22T11:16:49;97114.97;;;34.72;19.48
78206;BME280;67480;48.920;12.880;2023-07-22T11:19:15;97113.09;;;34.17;19.05
78206;BME280;67480;48.920;12.880;2023-07-22T11:21:45;97111.22;;;35.00;18.98
78206;BME280;67480;48.920;12.880;2023-07-22T11:24:10;97108.34;;;34.51;19.21
78206;BME280;67480;48.920;12.880;2023-07-22T11:26:37;97102.19;;;34.81;19.20
78206;BME280;67480;48.920;12.880;2023-07-22T11:29:05;97107.75;;;35.53;17.43
78206;BME280;67480;48.920;12.880;2023-07-22T11:31:41;97090.13;;;34.23;18.39
78206;BME280;67480;48.920;12.880;2023-07-22T11:34:11;97095.94;;;35.88;17.54
78206;BME280;67480;48.920;12.880;2023-07-22T11:36:37;97085.34;;;34.56;17.74
78206;BME280;67480;48.920;12.880;2023-07-22T11:39:03;97093.75;;;36.52;16.04
78206;BME280;67480;48.920;12.880;2023-07-22T11:41:29;97091.97;;;36.54;16.40
78206;BME280;67480;48.920;12.880;2023-07-22T11:43:57;97091.97;;;36.54;16.40
78206;BME280;67480;48.920;12.880;2023-07-22T11:46:22;97078.19;;;36.86;15.64
78206;BME280;67480;48.920;12.880;2023-07-22T11:48:55;97075.16;;;38.30;14.75
78206;BME280;67480;48.920;12.880;2023-07-22T11:51:23;97078.69;;;35.90;16.67
78206;BME280;67480;48.920;12.880;2023-07-22T11:53:53;97061.81;;;35.45;17.25
78206;BME280;67480;48.920;12.880;2023-07-22T11:56:26;97064.13;;;33.89;18.34
78206;BME280;67480;48.920;12.880;2023-07-22T11:58:54;97052.00;;;36.39;17.25
78206;BME280;67480;48.920;12.880;2023-07-22T12:01:20;97062.56;;;36.29;16.19
78206;BME280;67480;48.920;12.880;2023-07-22T12:03:46;97054.19;;;35.60;16.01
78206;BME280;67480;48.920;12.880;2023-07-22T12:06:12;97041.50;;;33.68;17.32
78206;BME280;67480;48.920;12.880;2023-07-22T12:08:48;97041.34;;;33.62;18.05
78206;BME280;67480;48.920;12.880;2023-07-22T12:11:24;97053.22;;;34.52;17.07
78206;BME280;67480;48.920;12.880;2023-07-22T12:14:12;97039.44;;;34.06;17.49
78206;BME280;67480;48.920;12.880;2023-07-22T12:16:40;97038.34;;;36.62;16.13
78206;BME280;67480;48.920;12.880;2023-07-22T12:19:07;97049.13;;;37.98;15.80
78206;BME280;67480;48.920;12.880;2023-07-22T12:21:32;97042.31;;;37.32;15.16
78206;BME280;67480;48.920;12.880;2023-07-22T12:23:58;97034.44;;;34.86;16.65
78206;BME280;67480;48.920;12.880;2023-07-22T12:26:24;97034.84;;;37.02;15.03
78206;BME280;67480;48.920;12.880;2023-07-22T12:28:49;97025.72;;;35.32;16.27
78206;BME280;67480;48.920;12.880;2023-07-22T12:31:15;97032.81;;;34.70;17.37
78206;BME280;67480;48.920;12.880;2023-07-22T12:33:41;97024.25;;;34.98;16.58
78206;BME280;67480;48.920;12.880;2023-07-22T12:36:07;97015.03;;;34.58;16.68
78206;BME280;67480;48.920;12.880;2023-07-22T12:38:32;97024.13;;;36.00;15.96
78206;BME280;67480;48.920;12.880;2023-07-22T12:40:58;97011.75;;;33.74;17.15
78206;BME280;67480;48.920;12.880;2023-07-22T12:43:23;97004.94;;;34.18;17.35
78206;BME280;67480;48.920;12.880;2023-07-22T12:45:49;97002.63;;;34.16;17.24
78206;BME280;67480;48.920;12.880;2023-07-22T12:48:15;97004.78;;;32.27;18.11
78206;BME280;67480;48.920;12.880;2023-07-22T12:50:40;97014.53;;;32.91;17.99
78206;BME280;67480;48.920;12.880;2023-07-22T12:53:05;97010.94;;;32.72;18.24
78206;BME280;67480;48.920;12.880;2023-07-22T12:55:31;97002.78;;;33.15;17.98
78206;BME280;67480;48.920;12.880;2023-07-22T12:57:56;97002.47;;;33.59;17.65
78206;BME280;67480;48.920;12.880;2023-07-22T13:00:22;96994.59;;;33.02;17.26
78206;BME280;67480;48.920;12.880;2023-07-22T13:02:47;96983.91;;;32.32;17.62
78206;BME280;67480;48.920;12.880;2023-07-22T13:05:13;96986.31;;;31.80;17.99
78206;BME280;67480;48.920;12.880;2023-07-22T13:07:39;96986.63;;;32.23;18.41
78206;BME280;67480;48.920;12.880;2023-07-22T13:10:04;96988.00;;;32.49;17.74